createdAt,value
2022-08-20T00:02:21.157Z,26.85
2022-08-20T00:04:50.304Z,27.50
2022-08-20T00:07:20.380Z,24.15
2022-08-20T00:09:49.603Z,23.20
2022-08-20T00:12:20.710Z,35.33
2022-08-20T00:14:49.984Z,27.08
2022-08-20T00:17:19.247Z,25.45
2022-08-20T00:19:49.059Z,24.25
2022-08-20T00:22:18.405Z,24.45
2022-08-20T00:24:47.581Z,25.67
2022-08-20T00:27:16.642Z,23.05
2022-08-20T00:29:48.066Z,25.15
2022-08-20T00:32:17.758Z,26.80
2022-08-20T00:34:47.319Z,23.75
2022-08-20T00:37:17.674Z,23.30
2022-08-20T00:39:46.984Z,26.85
2022-08-20T00:42:16.279Z,27.50
2022-08-20T00:44:49.209Z,25.33
2022-08-20T00:47:19.225Z,23.95
2022-08-20T00:49:48.316Z,25.75
2022-08-20T00:52:21.760Z,24.00
2022-08-20T00:54:55.006Z,22.45
2022-08-20T00:57:28.587Z,22.52
2022-08-20T01:00:22.462Z,23.50
2022-08-20T01:02:52.471Z,23.30
2022-08-20T01:05:23.193Z,24.50
2022-08-20T01:07:59.897Z,21.50
2022-08-20T01:10:31.444Z,21.50
2022-08-20T01:15:33.833Z,22.60
2022-08-20T01:18:04.419Z,22.75
2022-08-20T01:20:39.314Z,21.20
2022-08-20T01:23:30.266Z,21.23
2022-08-20T01:26:06.267Z,18.95
2022-08-20T01:28:43.201Z,18.60
2022-08-20T01:31:16.045Z,23.17
2022-08-20T01:33:47.947Z,20.48
2022-08-20T01:36:20.460Z,17.23
2022-08-20T01:38:54.103Z,22.02
2022-08-20T01:41:45.004Z,17.85
2022-08-20T01:44:16.921Z,18.77
2022-08-20T01:46:49.916Z,19.45
2022-08-20T01:49:23.192Z,16.42
2022-08-20T01:51:54.092Z,17.73
2022-08-20T01:54:24.152Z,23.20
2022-08-20T01:56:59.528Z,19.75
2022-08-20T01:59:29.073Z,18.85
2022-08-20T02:01:58.740Z,15.13
2022-08-20T02:04:28.577Z,21.27
2022-08-20T02:07:01.093Z,18.48
2022-08-20T02:09:33.387Z,17.50
2022-08-20T02:12:05.592Z,21.27
2022-08-20T02:14:38.271Z,15.80
2022-08-20T02:17:08.228Z,21.40
2022-08-20T02:19:42.287Z,17.10
2022-08-20T02:22:19.175Z,16.25
2022-08-20T02:24:48.580Z,21.35
2022-08-20T02:27:23.190Z,24.90
2022-08-20T02:29:52.645Z,16.85
2022-08-20T02:32:32.507Z,19.85
2022-08-20T02:37:33.768Z,23.02
2022-08-20T02:40:04.110Z,25.38
2022-08-20T02:42:35.417Z,22.98
2022-08-20T02:45:07.328Z,28.00
2022-08-20T02:47:36.923Z,25.60
2022-08-20T02:50:08.070Z,26.67
2022-08-20T02:52:37.818Z,33.70
2022-08-20T02:55:08.033Z,30.70
2022-08-20T02:57:49.516Z,31.67
2022-08-20T03:00:24.986Z,30.30
2022-08-20T03:02:54.388Z,38.50
2022-08-20T03:05:23.574Z,28.77
2022-08-20T03:07:56.121Z,34.13
2022-08-20T03:10:27.544Z,36.00
2022-08-20T03:12:59.552Z,32.47
2022-08-20T03:15:30.800Z,34.88
2022-08-20T03:18:03.072Z,29.70
2022-08-20T03:20:32.919Z,34.13
2022-08-20T03:23:02.062Z,30.05
2022-08-20T03:25:31.631Z,26.67
2022-08-20T03:28:03.697Z,24.65
2022-08-20T03:30:33.790Z,24.90
2022-08-20T03:33:03.090Z,25.55
2022-08-20T03:35:33.810Z,22.38
2022-08-20T03:38:03.577Z,17.80
2022-08-20T03:40:36.875Z,20.45
2022-08-20T03:43:10.755Z,17.48
2022-08-20T03:45:42.284Z,22.27
2022-08-20T03:48:14.162Z,17.55
2022-08-20T03:50:43.777Z,19.83
2022-08-20T03:53:14.630Z,23.52
2022-08-20T03:55:53.915Z,17.67
2022-08-20T03:58:34.948Z,18.58
2022-08-20T04:01:12.622Z,18.90
2022-08-20T04:03:58.421Z,14.57
2022-08-20T04:06:28.793Z,19.13
2022-08-20T04:08:58.094Z,21.40
2022-08-20T04:11:27.237Z,24.40
2022-08-20T04:13:58.373Z,18.60
2022-08-20T04:19:02.460Z,15.45
2022-08-20T04:21:33.033Z,16.83
2022-08-20T04:24:06.199Z,15.60
2022-08-20T04:26:36.897Z,16.67
2022-08-20T04:29:07.996Z,14.20
2022-08-20T04:31:37.175Z,13.13
2022-08-20T04:34:07.745Z,17.17
2022-08-20T04:36:37.146Z,22.70
2022-08-20T04:39:07.372Z,17.35
2022-08-20T04:41:36.543Z,12.95
2022-08-20T04:44:07.900Z,23.13
2022-08-20T04:46:37.256Z,16.02
2022-08-20T04:49:07.465Z,13.15
2022-08-20T04:51:36.685Z,14.45
2022-08-20T04:54:06.273Z,16.23
2022-08-20T04:56:38.601Z,14.05
2022-08-20T04:59:10.206Z,19.02
2022-08-20T05:01:39.400Z,13.82
2022-08-20T05:04:08.605Z,17.88
2022-08-20T05:06:38.190Z,15.30
2022-08-20T05:09:07.534Z,15.73
2022-08-20T05:11:37.504Z,15.65
2022-08-20T05:14:10.732Z,12.50
2022-08-20T05:16:41.504Z,15.40
2022-08-20T05:19:12.708Z,17.15
2022-08-20T05:21:42.989Z,14.00
2022-08-20T05:24:12.535Z,13.55
2022-08-20T05:26:41.924Z,12.57
2022-08-20T05:29:13.217Z,20.17
2022-08-20T05:31:42.779Z,14.50
2022-08-20T05:34:14.122Z,18.55
2022-08-20T05:36:48.095Z,13.98
2022-08-20T05:39:20.512Z,18.52
2022-08-20T05:41:51.566Z,11.98
2022-08-20T05:44:23.165Z,10.95
2022-08-20T05:46:52.333Z,10.55
2022-08-20T05:49:23.178Z,15.95
2022-08-20T05:51:52.894Z,11.60
2022-08-20T05:54:24.031Z,12.18
2022-08-20T05:56:53.638Z,10.07
2022-08-20T05:59:24.918Z,14.68
2022-08-20T06:01:54.482Z,20.92
2022-08-20T06:04:24.433Z,12.45
2022-08-20T06:06:54.786Z,10.00
2022-08-20T06:09:28.618Z,9.63
2022-08-20T06:12:04.427Z,12.10
2022-08-20T06:14:36.567Z,10.63
2022-08-20T06:17:08.402Z,9.45
2022-08-20T06:19:39.148Z,10.60
2022-08-20T06:22:20.492Z,6.97
2022-08-20T06:24:56.088Z,8.15
2022-08-20T06:27:25.792Z,12.43
2022-08-20T06:29:57.337Z,9.55
2022-08-20T06:32:31.754Z,5.95
2022-08-20T06:35:03.989Z,9.82
2022-08-20T06:37:36.133Z,19.45
2022-08-20T06:40:11.650Z,6.68
2022-08-20T06:42:47.767Z,8.10
2022-08-20T06:45:24.083Z,10.90
2022-08-20T06:47:55.365Z,12.52
2022-08-20T06:50:28.085Z,8.80
2022-08-20T06:52:57.514Z,11.70
2022-08-20T06:55:26.713Z,8.05
2022-08-20T06:58:00.014Z,5.97
2022-08-20T07:00:37.284Z,8.77
2022-08-20T07:03:09.325Z,11.55
2022-08-20T07:05:42.598Z,7.60
2022-08-20T07:08:13.334Z,7.82
2022-08-20T07:10:43.661Z,7.00
2022-08-20T07:13:15.348Z,8.25
2022-08-20T07:15:46.981Z,7.45
2022-08-20T07:18:16.929Z,9.52
2022-08-20T07:20:58.311Z,7.88
2022-08-20T07:23:27.985Z,8.27
2022-08-20T07:25:57.953Z,8.75
2022-08-20T07:28:30.476Z,15.38
2022-08-20T07:31:15.995Z,9.70
2022-08-20T07:33:46.345Z,9.32
2022-08-20T07:36:15.631Z,10.98
2022-08-20T07:38:46.213Z,9.90
2022-08-20T07:41:15.632Z,9.10
2022-08-20T07:43:46.283Z,9.27
2022-08-20T07:46:21.599Z,6.32
2022-08-20T07:48:52.061Z,8.02
2022-08-20T07:51:23.417Z,12.20
2022-08-20T07:53:53.754Z,8.05
2022-08-20T07:56:26.234Z,11.90
2022-08-20T07:58:59.434Z,12.25
2022-08-20T08:01:33.514Z,8.70
2022-08-20T08:04:04.193Z,7.22
2022-08-20T08:06:34.325Z,8.13
2022-08-20T08:09:07.114Z,10.55
2022-08-20T08:11:39.113Z,14.43
2022-08-20T08:14:09.815Z,10.30
2022-08-20T08:16:44.834Z,9.13
2022-08-20T08:19:16.590Z,9.15
2022-08-20T08:21:46.260Z,7.60
2022-08-20T08:24:21.810Z,9.02
2022-08-20T08:26:53.564Z,6.57
2022-08-20T08:29:22.674Z,8.60
2022-08-20T08:31:53.893Z,10.68
2022-08-20T08:34:24.910Z,9.57
2022-08-20T08:36:56.254Z,10.27
2022-08-20T08:42:04.777Z,9.40
2022-08-20T08:44:39.149Z,10.93
2022-08-20T08:47:21.484Z,8.23
2022-08-20T08:49:50.829Z,12.02
2022-08-20T08:52:24.532Z,11.63
2022-08-20T08:54:58.470Z,14.25
2022-08-20T08:57:28.943Z,12.38
2022-08-20T09:00:04.876Z,10.20
2022-08-20T09:02:38.665Z,11.93
2022-08-20T09:05:17.017Z,14.55
2022-08-20T09:07:53.144Z,13.68
2022-08-20T09:10:23.889Z,13.70
2022-08-20T09:12:53.273Z,14.35
2022-08-20T09:15:25.309Z,15.50
2022-08-20T09:17:56.534Z,18.55
2022-08-20T09:20:29.347Z,15.32
2022-08-20T09:22:58.794Z,17.75
2022-08-20T09:25:28.444Z,19.85
2022-08-20T09:27:57.537Z,19.75
2022-08-20T09:30:26.789Z,19.50
2022-08-20T09:33:01.204Z,16.63
2022-08-20T09:35:31.666Z,20.48
2022-08-20T09:38:00.744Z,18.38
2022-08-20T09:40:29.862Z,17.70
2022-08-20T09:42:59.575Z,16.67
2022-08-20T09:45:29.434Z,18.42
2022-08-20T09:48:00.641Z,15.82
2022-08-20T09:50:33.374Z,14.68
2022-08-20T09:53:04.296Z,16.52
2022-08-20T09:55:38.372Z,16.90
2022-08-20T09:58:23.496Z,16.38
2022-08-20T10:00:53.161Z,17.70
2022-08-20T10:03:24.288Z,15.00
2022-08-20T10:05:53.467Z,14.40
2022-08-20T10:08:22.703Z,10.60
2022-08-20T10:10:51.839Z,13.63
2022-08-20T10:13:20.954Z,16.10
2022-08-20T10:15:50.224Z,18.60
2022-08-20T10:18:19.580Z,16.77
2022-08-20T10:20:50.704Z,15.32
2022-08-20T10:23:20.360Z,15.88
2022-08-20T10:25:49.677Z,17.63
2022-08-20T10:28:19.151Z,13.50
2022-08-20T10:30:48.393Z,18.25
2022-08-20T10:33:17.618Z,15.88
2022-08-20T10:35:47.083Z,15.00
2022-08-20T10:38:18.227Z,13.55
2022-08-20T10:40:49.821Z,17.45
2022-08-20T10:43:21.976Z,14.85
2022-08-20T10:45:52.853Z,22.52
2022-08-20T10:48:22.117Z,12.20
2022-08-20T10:50:51.627Z,11.85
2022-08-20T10:53:23.073Z,11.90
2022-08-20T10:55:52.296Z,14.40
2022-08-20T10:58:23.778Z,13.63
2022-08-20T11:00:53.697Z,10.98
2022-08-20T11:03:23.027Z,12.95
2022-08-20T11:05:52.165Z,10.23
2022-08-20T11:08:33.566Z,12.43
2022-08-20T11:11:03.980Z,14.13
2022-08-20T11:13:33.084Z,11.18
2022-08-20T11:16:03.518Z,15.68
2022-08-20T11:18:33.102Z,12.93
2022-08-20T11:21:02.340Z,7.97
2022-08-20T11:23:33.396Z,9.65
2022-08-20T11:26:02.771Z,13.60
2022-08-20T11:28:32.843Z,14.85
2022-08-20T11:31:03.407Z,7.90
2022-08-20T11:33:32.850Z,9.23
2022-08-20T11:36:02.031Z,10.23
2022-08-20T11:38:33.811Z,5.03
2022-08-20T11:41:03.135Z,4.28
2022-08-20T11:43:32.265Z,10.52
2022-08-20T11:46:01.479Z,6.72
2022-08-20T11:48:30.641Z,10.30
2022-08-20T11:50:59.893Z,6.05
2022-08-20T11:53:29.025Z,11.43
2022-08-20T11:56:03.053Z,7.65
2022-08-20T11:58:33.387Z,10.57
2022-08-20T12:01:02.589Z,9.18
2022-08-20T12:03:32.501Z,7.13
2022-08-20T12:06:01.705Z,17.58
2022-08-20T12:08:30.963Z,8.80
2022-08-20T12:11:05.206Z,10.20
2022-08-20T12:13:47.890Z,8.32
2022-08-20T12:16:21.258Z,8.32
2022-08-20T12:18:51.560Z,12.90
2022-08-20T12:21:20.617Z,8.35
2022-08-20T12:23:49.948Z,8.40
2022-08-20T12:26:21.204Z,9.30
2022-08-20T12:28:50.479Z,14.60
2022-08-20T12:31:19.560Z,8.63
2022-08-20T12:33:48.720Z,6.07
2022-08-20T12:36:17.983Z,7.10
2022-08-20T12:38:49.311Z,7.60
2022-08-20T12:41:29.394Z,9.48
2022-08-20T12:43:58.601Z,8.10
2022-08-20T12:46:27.826Z,9.02
2022-08-20T12:48:57.026Z,8.68
2022-08-20T12:57:26.373Z,8.60
2022-08-20T12:59:56.840Z,6.20
2022-08-20T13:02:28.901Z,11.00
2022-08-20T13:05:04.307Z,9.70
2022-08-20T13:07:38.517Z,6.53
2022-08-20T13:10:14.706Z,9.13
2022-08-20T13:12:46.423Z,9.85
2022-08-20T13:15:18.723Z,6.55
2022-08-20T13:17:52.177Z,13.18
2022-08-20T13:20:24.828Z,9.18
2022-08-20T13:22:55.060Z,12.00
2022-08-20T13:25:27.008Z,10.00
2022-08-20T13:28:04.170Z,11.48
2022-08-20T13:30:37.051Z,12.38
2022-08-20T13:33:07.240Z,8.45
2022-08-20T13:35:37.139Z,10.00
2022-08-20T13:38:07.270Z,9.65
2022-08-20T13:40:37.583Z,6.88
2022-08-20T13:43:12.021Z,40.42
2022-08-20T13:45:42.977Z,4.90
2022-08-20T13:48:15.560Z,8.60
2022-08-20T13:50:48.871Z,12.30
2022-08-20T13:53:18.496Z,8.73
2022-08-20T13:55:48.130Z,8.10
2022-08-20T13:58:19.611Z,7.63
2022-08-20T14:00:48.984Z,7.68
2022-08-20T14:03:19.773Z,11.00
2022-08-20T14:05:49.741Z,13.52
2022-08-20T14:08:21.646Z,10.65
2022-08-20T14:10:52.582Z,9.95
2022-08-20T14:13:26.801Z,8.20
2022-08-20T14:15:56.348Z,5.10
2022-08-20T14:18:25.567Z,9.32
2022-08-20T14:20:54.729Z,7.72
2022-08-20T14:23:24.301Z,6.60
2022-08-20T14:25:53.595Z,11.13
2022-08-20T14:28:26.326Z,10.65
2022-08-20T14:30:55.651Z,10.88
2022-08-20T14:33:26.223Z,15.05
2022-08-20T14:35:55.575Z,10.85
2022-08-20T14:38:24.662Z,5.30
2022-08-20T14:40:53.924Z,11.45
2022-08-20T14:43:24.970Z,10.32
2022-08-20T14:45:54.557Z,11.55
2022-08-20T14:48:25.015Z,9.23
2022-08-20T14:50:55.432Z,12.30
2022-08-20T14:53:24.747Z,8.80
2022-08-20T14:55:54.380Z,7.78
2022-08-20T14:58:25.420Z,4.88
2022-08-20T15:00:55.863Z,4.22
2022-08-20T15:03:30.028Z,8.20
2022-08-20T15:06:00.119Z,10.02
2022-08-20T15:08:29.685Z,6.10
2022-08-20T15:10:59.035Z,9.48
2022-08-20T15:13:30.612Z,7.05
2022-08-20T15:15:59.880Z,6.90
2022-08-20T15:18:29.218Z,9.25
2022-08-20T15:20:58.528Z,7.43
2022-08-20T15:23:27.882Z,5.07
2022-08-20T15:25:57.290Z,8.77
2022-08-20T15:28:26.579Z,7.28
2022-08-20T15:30:57.793Z,6.85
2022-08-20T15:33:26.922Z,5.90
2022-08-20T15:35:56.127Z,10.52
2022-08-20T15:38:25.403Z,8.18
2022-08-20T15:40:54.567Z,11.65
2022-08-20T15:43:23.718Z,8.18
2022-08-20T15:45:52.998Z,11.05
2022-08-20T15:48:33.098Z,7.05
2022-08-20T15:51:16.675Z,10.15
2022-08-20T15:53:57.056Z,8.50
2022-08-20T15:56:48.169Z,5.88
2022-08-20T15:59:38.183Z,3.15
2022-08-20T16:02:25.862Z,8.93
2022-08-20T16:05:09.091Z,6.50
2022-08-20T16:07:49.659Z,10.00
2022-08-20T16:10:24.505Z,9.07
2022-08-20T16:12:56.878Z,9.30
2022-08-20T16:15:27.849Z,9.23
2022-08-20T16:18:08.268Z,7.80
2022-08-20T16:20:44.350Z,5.60
2022-08-20T16:23:19.432Z,8.90
2022-08-20T16:26:01.796Z,6.50
2022-08-20T16:28:43.789Z,8.55
2022-08-20T16:31:19.025Z,7.63
2022-08-20T16:33:55.685Z,6.90
2022-08-20T16:36:35.148Z,8.77
2022-08-20T16:39:08.784Z,12.70
2022-08-20T16:41:41.833Z,8.52
2022-08-20T16:44:18.704Z,10.45
2022-08-20T16:46:53.718Z,7.90
2022-08-20T16:49:24.375Z,8.70
2022-08-20T16:51:55.968Z,6.93
2022-08-20T16:57:03.824Z,9.50
2022-08-20T16:59:34.410Z,8.60
2022-08-20T17:02:10.061Z,9.15
2022-08-20T17:04:58.733Z,15.52
2022-08-20T17:07:46.152Z,14.85
2022-08-20T17:10:22.302Z,11.85
2022-08-20T17:13:00.096Z,7.53
2022-08-20T17:15:32.962Z,7.07
2022-08-20T17:18:22.868Z,12.65
2022-08-20T17:20:54.858Z,6.28
2022-08-20T17:23:26.069Z,11.32
2022-08-20T17:26:01.404Z,11.63
2022-08-20T17:28:35.207Z,7.68
2022-08-20T17:31:05.028Z,10.43
2022-08-20T17:33:38.844Z,11.35
2022-08-20T17:36:12.127Z,12.20
2022-08-20T17:38:49.117Z,12.05
2022-08-20T17:41:23.842Z,11.05
2022-08-20T17:43:59.605Z,10.35
2022-08-20T17:46:32.361Z,10.30
2022-08-20T17:49:07.282Z,10.43
2022-08-20T17:51:40.547Z,8.95
2022-08-20T17:54:17.652Z,11.35
2022-08-20T17:56:46.912Z,8.50
2022-08-20T17:59:33.692Z,11.13
2022-08-20T18:02:17.654Z,8.93
2022-08-20T18:04:48.109Z,13.43
2022-08-20T18:07:25.713Z,15.00
2022-08-20T18:10:03.433Z,9.80
2022-08-20T18:12:37.960Z,7.70
2022-08-20T18:15:19.290Z,8.55
2022-08-20T18:18:17.404Z,12.57
2022-08-20T18:21:16.112Z,7.78
2022-08-20T18:23:50.172Z,9.15
2022-08-20T18:26:28.289Z,12.02
2022-08-20T18:29:01.336Z,8.15
2022-08-20T18:31:34.307Z,12.45
2022-08-20T18:34:13.826Z,8.90
2022-08-20T18:36:43.902Z,9.30
2022-08-20T18:39:26.460Z,7.07
2022-08-20T18:42:03.781Z,9.70
2022-08-20T18:44:41.133Z,8.90
2022-08-20T18:47:22.779Z,11.35
2022-08-20T18:50:06.142Z,8.20
2022-08-20T18:52:49.532Z,10.98
2022-08-20T18:55:32.489Z,9.45
2022-08-20T18:58:08.921Z,8.85
2022-08-20T19:00:42.947Z,10.30
2022-08-20T19:03:21.652Z,9.85
2022-08-20T19:06:08.033Z,16.50
2022-08-20T19:08:47.219Z,8.75
2022-08-20T19:11:31.146Z,10.73
2022-08-20T19:14:27.791Z,8.68
2022-08-20T19:17:04.117Z,9.13
2022-08-20T19:19:33.685Z,11.40
2022-08-20T19:22:04.874Z,9.70
2022-08-20T19:24:43.213Z,8.57
2022-08-20T19:27:14.282Z,8.63
2022-08-20T19:29:49.945Z,21.63
2022-08-20T19:32:28.369Z,13.75
2022-08-20T19:35:00.557Z,11.73
2022-08-20T19:37:40.043Z,9.15
2022-08-20T19:40:28.565Z,10.50
2022-08-20T19:42:59.849Z,8.82
2022-08-20T19:45:39.025Z,14.10
2022-08-20T19:48:26.943Z,9.77
2022-08-20T19:51:06.444Z,14.70
2022-08-20T19:53:37.845Z,12.27
2022-08-20T19:56:11.680Z,10.90
2022-08-20T19:58:42.432Z,10.32
2022-08-20T20:01:20.029Z,14.90
2022-08-20T20:03:58.412Z,10.18
2022-08-20T20:06:28.924Z,10.55
2022-08-20T20:09:01.644Z,16.38
2022-08-20T20:11:36.539Z,15.02
2022-08-20T20:14:11.474Z,13.30
2022-08-20T20:16:44.638Z,19.58
2022-08-20T20:19:26.373Z,16.38
2022-08-20T20:22:18.393Z,18.35
2022-08-20T20:24:59.580Z,10.20
2022-08-20T20:27:32.621Z,15.32
2022-08-20T20:30:03.867Z,13.50
2022-08-20T20:32:36.253Z,13.18
2022-08-20T20:35:08.353Z,15.43
2022-08-20T20:37:50.665Z,12.50
2022-08-20T20:40:27.084Z,13.48
2022-08-20T20:43:03.880Z,17.90
2022-08-20T20:45:37.073Z,18.98
2022-08-20T20:48:19.462Z,11.20
2022-08-20T20:50:50.613Z,19.20
2022-08-20T20:53:32.471Z,16.25
2022-08-20T20:56:34.705Z,11.80
2022-08-20T20:59:06.985Z,15.27
2022-08-20T21:01:48.967Z,13.55
2022-08-20T21:04:23.783Z,12.85
2022-08-20T21:06:55.568Z,12.77
2022-08-20T21:11:56.199Z,16.33
2022-08-20T21:14:25.310Z,9.27
2022-08-20T21:16:55.617Z,14.23
2022-08-20T21:19:30.104Z,11.95
2022-08-20T21:21:59.311Z,13.32
2022-08-20T21:24:29.168Z,11.90
2022-08-20T21:26:58.839Z,14.95
2022-08-20T21:29:32.705Z,17.92
2022-08-20T21:32:02.503Z,12.35
2022-08-20T21:34:33.840Z,11.30
2022-08-20T21:37:03.014Z,14.77
2022-08-20T21:39:32.415Z,14.75
2022-08-20T21:42:04.892Z,14.38
2022-08-20T21:44:50.357Z,15.07
2022-08-20T21:47:20.090Z,13.90
2022-08-20T21:49:51.521Z,15.40
2022-08-20T21:52:21.179Z,16.55
2022-08-20T21:54:50.371Z,16.20
2022-08-20T21:57:22.838Z,16.02
2022-08-20T21:59:52.635Z,18.10
2022-08-20T22:02:25.356Z,16.95
2022-08-20T22:04:57.174Z,19.70
2022-08-20T22:09:54.965Z,20.30
2022-08-20T22:12:27.585Z,20.33
2022-08-20T22:14:57.341Z,20.13
2022-08-20T22:17:26.575Z,26.33
2022-08-20T22:19:57.754Z,25.20
2022-08-20T22:22:27.085Z,24.15
2022-08-20T22:24:56.210Z,28.38
2022-08-20T22:27:25.504Z,28.88
2022-08-20T22:29:56.095Z,24.90
2022-08-20T22:32:33.458Z,26.85
2022-08-20T22:35:17.391Z,30.50
2022-08-20T22:37:46.664Z,31.08
2022-08-20T22:40:15.882Z,31.63
2022-08-20T22:42:45.180Z,32.75
2022-08-20T22:45:14.931Z,35.20
2022-08-20T22:47:44.947Z,33.58
2022-08-20T22:50:16.876Z,41.92
2022-08-20T22:52:46.276Z,35.00
2022-08-20T22:55:15.682Z,37.60
2022-08-20T22:57:45.100Z,35.75
2022-08-20T23:00:17.624Z,43.08
2022-08-20T23:02:51.846Z,40.28
2022-08-20T23:05:25.363Z,38.63
2022-08-20T23:07:56.244Z,43.88
2022-08-20T23:10:26.491Z,40.07
2022-08-20T23:12:56.713Z,38.05
2022-08-20T23:15:27.489Z,41.47
2022-08-20T23:18:02.542Z,39.55
2022-08-20T23:20:33.648Z,36.70
2022-08-20T23:23:04.580Z,41.45
2022-08-20T23:25:34.309Z,37.43
2022-08-20T23:28:04.406Z,45.67
2022-08-20T23:30:34.265Z,41.30
2022-08-20T23:33:03.713Z,34.67
2022-08-20T23:35:35.675Z,39.42
2022-08-20T23:38:05.354Z,41.75
2022-08-20T23:40:35.567Z,46.03
2022-08-20T23:43:06.205Z,36.17
2022-08-20T23:45:39.633Z,42.03
2022-08-20T23:48:09.584Z,37.00
2022-08-20T23:50:40.936Z,37.65
2022-08-20T23:53:11.275Z,38.25
2022-08-20T23:55:40.667Z,39.05
2022-08-20T23:58:10.110Z,40.45
